Grand Cayman, Cayman Islands

11:06 AM EST on February 07, 2016 (GMT -0500)
APRSWXNET | | Change Station
CLOSE
Current Station
Personal Weather Station
Location: Owen Roberts,
Elevation: 32 ft
Nearby Weather Stations

Elev 32 ft 19.27 °N, 81.37 °W | Updated 16 minutes ago

Mostly Cloudy
Mostly Cloudy
76 °F
Feels Like 77 °F
N
7
Wind Variable Wind from NW
Gusts 15.0 mph

Today
High -- | Low -- °F
--% Chance of Precip.
Yesterday
High -- | Low -- °F
Precip. -- in
Pressure 30.06 in
Visibility 6.2 miles
Clouds Mostly Cloudy 1400 ft
Mostly Cloudy 3500 ft
Heat Index 77 °F
Dew Point 71 °F
Humidity 84%
Rainfall in
Snow Depth Not available.
6:58 AM 6:21 PM
Waning Crescent, 1% visible
METAR MWCR 071600Z 35008KT 290V030 9999 VCSH BKN014 BKN035 25/23 Q1018
Pressure 30.06 in
Visibility 6.2 miles
Clouds Mostly Cloudy 1400 ft
Mostly Cloudy 3500 ft
Heat Index 77 °F
Dew Point 71 °F
Humidity 84%
Rainfall in
Snow Depth Not available.
6:58 AM 6:21 PM
Waning Crescent, 1% visible
METAR MWCR 071600Z 35008KT 290V030 9999 VCSH BKN014 BKN035 25/23 Q1018

10-Day Weather Forecast

No radar image for this location.
×

Almanac

Astronomy

Feb. 07, 2016 Rise Set
Actual Time
Civil Twilight
Nautical Twilight
Astronomical Twilight
Moon
Length of Visible Light
Length of Day
Tomorrow will be .
, % of the Moon is Illuminated

Today's Extremes

Country Highs Country Lows

Community

WunderPhotos

Upload Photos

1,891,218 photos uploaded!

WunderBlog® & News

Nearby

Air Quality

  Air Quality AQ Index Pollutant
Not available.

Snow Depth

Station Depth Elevation

Earthquake Activity

City Distance Mag. Time & Date
Minimum magnitude displayed is 2.5.

Coastal Water Temperatures

Place Temperature

Stations

Nearby Weather Stations

Station Location Temp. Windchill Dew Point Humidity Wind Precip. Elev Updated Type